CheckWX is a tool to help pilots better visualize weather data.  It is not intended as a substitute for an official pre-flight weather briefing.

14:37:18 UTC

KSBY TAF
Salisbury-Ocean City Wicomico Regional Airport
Salisbury, Maryland, USA
KSBY 221227Z 2212/2312 15007KT 3SM BR OVC005 TEMPO 2212/2214 1/2SM FG OVC002 FM221500 15009KT P6SM OVC010 FM222100 15011KT 6SM -SHRA SCT007 OVC015 FM222300 18010KT 4SM SHRA OVC007 FM230200 23007KT 3SM -RADZ BR SCT003 OVC005 FM230500 30008KT P6SM OVC035

Oct-22@
12:00 UTC

Oct-22 @ 12:00 UTC

Oct-22@
15:00 UTC

Oct-22 @ 15:00 UTC

KSBY 221227Z 2212/2312 15007KT 3SM BR OVC005
Wind
  • 150° at 7 KTS
Conditions
Mist
Cloud Levels
  • Overcast at 500' AGL

Oct-22@
12:00 UTC

Oct-22 @ 12:00 UTC

Oct-22@
14:00 UTC

Oct-22 @ 14:00 UTC

TEMPO 2212/2214 1/2SM FG OVC002

Expired

Conditions
Fog
Cloud Levels
  • Overcast at 200' AGL

Oct-22@
15:00 UTC

Oct-22 @ 15:00 UTC

Oct-22@
21:00 UTC

Oct-22 @ 21:00 UTC

FM221500 15009KT P6SM OVC010

From

From Standard forecast or significant change

Wind
  • 150° at 9 KTS
Cloud Levels
  • Overcast at 1,000' AGL

Oct-22@
21:00 UTC

Oct-22 @ 21:00 UTC

Oct-22@
23:00 UTC

Oct-22 @ 23:00 UTC

FM222100 15011KT 6SM -SHRA SCT007 OVC015

From

From Standard forecast or significant change

Wind
  • 150° at 11 KTS
Conditions
Light Rain
Cloud Levels
  • Scattered at 700' AGL
  • Overcast at 1,500' AGL

Oct-22@
23:00 UTC

Oct-22 @ 23:00 UTC

Oct-23@
02:00 UTC

Oct-23 @ 02:00 UTC

FM222300 18010KT 4SM SHRA OVC007

From

From Standard forecast or significant change

Wind
  • 180° at 10 KTS
Conditions
Rain
Cloud Levels
  • Overcast at 700' AGL

Oct-23@
02:00 UTC

Oct-23 @ 02:00 UTC

Oct-23@
05:00 UTC

Oct-23 @ 05:00 UTC

FM230200 23007KT 3SM -RADZ BR SCT003 OVC005

From

From Standard forecast or significant change

Wind
  • 230° at 7 KTS
Conditions
Light Rain, Light Drizzle, Mist
Cloud Levels
  • Scattered at 300' AGL
  • Overcast at 500' AGL

Oct-23@
05:00 UTC

Oct-23 @ 05:00 UTC

Oct-23@
12:00 UTC

Oct-23 @ 12:00 UTC

FM230500 30008KT P6SM OVC035

From

From Standard forecast or significant change

Wind
  • 300° at 8 KTS
Cloud Levels
  • Overcast at 3,500' AGL